createdAt,value
2018-06-28T00:00:15.798Z,2.10
2018-06-28T00:02:45.421Z,2.27
2018-06-28T00:05:15.770Z,2.67
2018-06-28T00:07:45.291Z,2.60
2018-06-28T00:10:14.790Z,1.73
2018-06-28T00:12:44.425Z,2.00
2018-06-28T00:15:13.903Z,2.33
2018-06-28T00:17:43.409Z,1.70
2018-06-28T00:20:13.000Z,2.20
2018-06-28T00:22:42.548Z,2.23
2018-06-28T00:25:12.030Z,1.80
2018-06-28T00:27:41.480Z,2.23
2018-06-28T00:30:10.886Z,2.30
2018-06-28T00:32:40.148Z,2.17
2018-06-28T00:35:09.647Z,2.30
2018-06-28T00:37:39.266Z,1.73
2018-06-28T00:40:08.749Z,1.53
2018-06-28T00:42:39.004Z,2.30
2018-06-28T00:45:08.982Z,2.27
2018-06-28T00:47:39.279Z,2.03
2018-06-28T00:50:09.051Z,2.23
2018-06-28T00:52:38.587Z,2.23
2018-06-28T00:55:08.695Z,2.33
2018-06-28T00:57:38.219Z,2.27
2018-06-28T01:00:07.472Z,2.10
2018-06-28T01:02:36.999Z,2.37
2018-06-28T01:05:07.548Z,2.17
2018-06-28T01:07:37.026Z,2.50
2018-06-28T01:10:08.214Z,2.20
2018-06-28T01:12:38.005Z,2.70
2018-06-28T01:15:08.188Z,3.13
2018-06-28T01:17:37.767Z,2.63
2018-06-28T01:20:07.494Z,2.30
2018-06-28T01:22:37.152Z,2.80
2018-06-28T01:25:07.454Z,2.87
2018-06-28T01:27:37.422Z,3.30
2018-06-28T01:30:07.451Z,2.87
2018-06-28T01:32:37.687Z,3.17
2018-06-28T01:35:07.223Z,3.70
2018-06-28T01:37:36.665Z,3.23
2018-06-28T01:40:07.492Z,3.67
2018-06-28T01:42:54.490Z,3.90
2018-06-28T01:45:24.401Z,4.10
2018-06-28T01:47:54.295Z,4.10
2018-06-28T01:50:24.466Z,4.00
2018-06-28T01:52:54.356Z,4.13
2018-06-28T01:55:24.717Z,4.57
2018-06-28T01:57:55.613Z,4.97
2018-06-28T02:00:25.852Z,4.97
2018-06-28T02:02:55.445Z,4.43
2018-06-28T02:05:26.009Z,5.40
2018-06-28T02:07:56.458Z,4.50
2018-06-28T02:10:26.396Z,4.63
2018-06-28T02:12:56.156Z,4.63
2018-06-28T02:15:26.520Z,5.07
2018-06-28T02:17:55.885Z,5.10
2018-06-28T02:20:26.067Z,5.00
2018-06-28T02:22:56.054Z,5.07
2018-06-28T02:25:25.469Z,5.40
2018-06-28T02:27:55.741Z,4.77
2018-06-28T02:30:25.329Z,5.60
2018-06-28T02:32:54.988Z,4.40
2018-06-28T02:35:24.840Z,5.83
2018-06-28T02:37:54.417Z,5.33
2018-06-28T02:40:23.897Z,6.73
2018-06-28T02:42:53.879Z,6.30
2018-06-28T02:45:23.504Z,6.10
2018-06-28T02:47:54.588Z,6.60
2018-06-28T02:50:24.555Z,6.57
2018-06-28T02:52:54.845Z,6.73
2018-06-28T02:55:26.159Z,6.10
2018-06-28T02:57:55.777Z,6.90
2018-06-28T03:00:25.457Z,6.40
2018-06-28T03:02:54.978Z,5.70
2018-06-28T03:05:24.574Z,6.07
2018-06-28T03:07:54.117Z,5.80
2018-06-28T03:10:23.675Z,6.07
2018-06-28T03:12:54.274Z,6.17
2018-06-28T03:15:23.858Z,6.90
2018-06-28T03:17:55.662Z,6.60
2018-06-28T03:20:25.953Z,8.00
2018-06-28T03:22:56.337Z,6.00
2018-06-28T03:25:26.897Z,7.27
2018-06-28T03:27:57.290Z,6.30
2018-06-28T03:30:26.773Z,5.77
2018-06-28T03:33:04.953Z,6.17
2018-06-28T03:35:34.648Z,5.73
2018-06-28T03:38:04.132Z,6.93
2018-06-28T03:40:33.668Z,5.63
2018-06-28T03:43:03.182Z,7.10
2018-06-28T03:45:32.665Z,6.53
2018-06-28T03:48:02.201Z,6.30
2018-06-28T03:50:31.663Z,6.83
2018-06-28T03:53:01.497Z,5.23
2018-06-28T03:55:31.072Z,6.63
2018-06-28T03:58:00.938Z,6.70
2018-06-28T04:00:30.348Z,6.43
2018-06-28T04:03:00.267Z,6.47
2018-06-28T04:05:30.138Z,6.57
2018-06-28T04:07:59.881Z,7.27
2018-06-28T04:10:29.378Z,6.43
2018-06-28T04:13:03.377Z,6.37
2018-06-28T04:15:33.919Z,6.40
2018-06-28T04:18:03.431Z,6.53
2018-06-28T04:20:32.939Z,6.23
2018-06-28T04:23:03.045Z,6.67
2018-06-28T04:25:32.486Z,6.67
2018-06-28T04:28:01.670Z,6.30
2018-06-28T04:30:31.154Z,6.30
2018-06-28T04:33:00.597Z,5.97
2018-06-28T04:35:30.086Z,7.10
2018-06-28T04:37:59.552Z,6.00
2018-06-28T04:40:29.050Z,5.20
2018-06-28T04:42:58.676Z,6.17
2018-06-28T04:45:28.167Z,6.13
2018-06-28T04:47:57.700Z,6.10
2018-06-28T04:50:27.286Z,6.10
2018-06-28T04:52:56.942Z,5.20
2018-06-28T04:55:26.405Z,5.30
2018-06-28T04:57:55.852Z,6.30
2018-06-28T05:00:25.466Z,6.13
2018-06-28T05:02:55.463Z,6.70
2018-06-28T05:05:24.961Z,5.63
2018-06-28T05:07:54.375Z,5.63
2018-06-28T05:10:23.841Z,6.33
2018-06-28T05:12:53.353Z,6.23
2018-06-28T05:15:22.921Z,5.50
2018-06-28T05:17:52.146Z,5.50
2018-06-28T05:20:21.681Z,6.20
2018-06-28T05:22:51.215Z,5.33
2018-06-28T05:25:21.086Z,6.43
2018-06-28T05:27:50.727Z,4.90
2018-06-28T05:30:20.209Z,6.00
2018-06-28T05:32:49.629Z,6.20
2018-06-28T05:35:19.196Z,5.40
2018-06-28T05:37:48.850Z,5.60
2018-06-28T05:40:18.314Z,5.00
2018-06-28T05:42:47.731Z,5.60
2018-06-28T05:45:17.292Z,4.93
2018-06-28T05:47:46.783Z,4.60
2018-06-28T05:50:16.273Z,5.13
2018-06-28T05:52:45.780Z,5.67
2018-06-28T05:55:15.285Z,5.70
2018-06-28T05:57:44.836Z,4.97
2018-06-28T06:00:14.218Z,5.20
2018-06-28T06:02:43.951Z,5.60
2018-06-28T06:05:13.235Z,5.57
2018-06-28T06:07:42.690Z,4.93
2018-06-28T06:10:12.157Z,5.50
2018-06-28T06:12:42.151Z,5.03
2018-06-28T06:15:11.916Z,4.60
2018-06-28T06:17:41.462Z,5.17
2018-06-28T06:20:11.069Z,5.47
2018-06-28T06:22:40.549Z,4.73
2018-06-28T06:25:10.078Z,4.60
2018-06-28T06:27:39.543Z,4.30
2018-06-28T06:30:09.990Z,4.30
2018-06-28T06:32:39.597Z,3.80
2018-06-28T06:35:09.130Z,3.60
2018-06-28T06:37:38.829Z,3.90
2018-06-28T06:40:08.366Z,4.73
2018-06-28T06:42:37.993Z,4.57
2018-06-28T06:45:08.252Z,3.40
2018-06-28T06:47:37.778Z,4.17
2018-06-28T06:50:07.295Z,3.40
2018-06-28T06:52:36.810Z,3.80
2018-06-28T06:55:06.958Z,3.60
2018-06-28T06:57:36.536Z,4.07
2018-06-28T07:00:06.610Z,3.43
2018-06-28T07:02:36.283Z,3.40
2018-06-28T07:05:05.791Z,3.13
2018-06-28T07:07:35.238Z,3.70
2018-06-28T07:10:06.872Z,3.63
2018-06-28T07:12:36.413Z,3.37
2018-06-28T07:15:06.491Z,3.67
2018-06-28T07:17:36.009Z,4.00
2018-06-28T07:20:05.998Z,3.50
2018-06-28T07:22:35.477Z,3.80
2018-06-28T07:25:04.988Z,4.73
2018-06-28T07:27:34.818Z,3.97
2018-06-28T07:30:05.150Z,3.80
2018-06-28T07:32:35.211Z,4.07
2018-06-28T07:35:04.841Z,4.60
2018-06-28T07:37:34.968Z,4.20
2018-06-28T07:40:05.552Z,3.30
2018-06-28T07:42:35.664Z,5.00
2018-06-28T07:45:05.557Z,4.07
2018-06-28T07:47:35.376Z,3.97
2018-06-28T07:50:05.620Z,4.30
2018-06-28T07:52:35.717Z,3.70
2018-06-28T07:55:05.601Z,4.33
2018-06-28T07:57:35.772Z,3.90
2018-06-28T08:00:06.544Z,3.53
2018-06-28T08:02:36.522Z,3.97
2018-06-28T08:05:06.015Z,6.43
2018-06-28T08:07:36.036Z,3.10
2018-06-28T08:10:05.677Z,3.30
2018-06-28T08:12:35.839Z,2.47
2018-06-28T08:15:05.595Z,2.73
2018-06-28T08:17:35.103Z,3.07
2018-06-28T08:20:06.233Z,3.10
2018-06-28T08:22:35.721Z,3.50
2018-06-28T08:25:05.834Z,3.47
2018-06-28T08:27:35.629Z,2.70
2018-06-28T08:30:05.977Z,2.73
2018-06-28T08:32:35.402Z,3.03
2018-06-28T08:35:06.409Z,3.03
2018-06-28T08:37:35.900Z,2.63
2018-06-28T08:40:05.866Z,2.70
2018-06-28T08:42:35.423Z,2.50
2018-06-28T08:45:05.031Z,3.57
2018-06-28T08:47:34.593Z,2.43
2018-06-28T08:50:04.095Z,2.57
2018-06-28T08:52:33.568Z,3.07
2018-06-28T08:55:03.978Z,2.93
2018-06-28T08:57:33.512Z,3.10
2018-06-28T09:00:02.954Z,2.90
2018-06-28T09:02:32.488Z,2.90
2018-06-28T09:05:01.731Z,2.57
2018-06-28T09:07:31.258Z,2.70
2018-06-28T09:10:01.067Z,2.10
2018-06-28T09:12:30.566Z,2.00
2018-06-28T09:15:00.107Z,2.80
2018-06-28T09:17:29.786Z,3.10
2018-06-28T09:19:59.273Z,2.97
2018-06-28T09:22:28.769Z,2.30
2018-06-28T09:24:58.289Z,2.13
2018-06-28T09:27:27.817Z,1.80
2018-06-28T09:29:57.287Z,1.90
2018-06-28T09:32:26.812Z,2.43
2018-06-28T09:34:56.325Z,2.53
2018-06-28T09:37:25.799Z,2.50
2018-06-28T09:39:55.400Z,1.87
2018-06-28T09:42:25.028Z,2.20
2018-06-28T09:44:54.573Z,2.00
2018-06-28T09:47:24.063Z,2.27
2018-06-28T09:49:53.481Z,1.80
2018-06-28T09:52:22.984Z,1.77
2018-06-28T09:54:52.552Z,2.10
2018-06-28T09:57:21.980Z,1.93
2018-06-28T09:59:51.521Z,1.60
2018-06-28T10:02:21.076Z,1.67
2018-06-28T10:04:50.497Z,1.30
2018-06-28T10:07:20.031Z,1.40
2018-06-28T10:09:49.498Z,1.80
2018-06-28T10:12:18.960Z,2.00
2018-06-28T10:14:48.488Z,2.33
2018-06-28T10:17:17.880Z,1.83
2018-06-28T10:19:47.293Z,1.63
2018-06-28T10:22:17.462Z,2.00
2018-06-28T10:24:47.394Z,1.50
2018-06-28T10:27:17.060Z,1.60
2018-06-28T10:29:46.581Z,1.83
2018-06-28T10:32:16.126Z,1.70
2018-06-28T10:34:46.159Z,2.20
2018-06-28T10:37:15.863Z,1.10
2018-06-28T10:39:45.424Z,1.70
2018-06-28T10:42:14.962Z,2.60
2018-06-28T10:44:44.442Z,1.73
2018-06-28T10:47:13.967Z,2.07
2018-06-28T10:49:43.568Z,1.60
2018-06-28T10:52:13.074Z,1.93
2018-06-28T10:54:42.886Z,1.80
2018-06-28T10:57:12.329Z,1.80
2018-06-28T10:59:41.619Z,1.67
2018-06-28T11:02:11.057Z,2.03
2018-06-28T11:04:40.689Z,1.47
2018-06-28T11:07:10.240Z,1.70
2018-06-28T11:09:39.700Z,1.50
2018-06-28T11:12:09.135Z,1.73
2018-06-28T11:14:38.858Z,1.50
2018-06-28T11:17:08.448Z,2.20
2018-06-28T11:19:38.081Z,1.67
2018-06-28T11:22:07.767Z,1.57
2018-06-28T11:24:37.287Z,1.67
2018-06-28T11:27:07.076Z,1.53
2018-06-28T11:29:36.515Z,1.93
2018-06-28T11:32:06.286Z,1.00
2018-06-28T11:34:35.727Z,1.40
2018-06-28T11:37:05.532Z,1.57
2018-06-28T11:39:35.032Z,1.30
2018-06-28T11:42:05.123Z,1.40
2018-06-28T11:44:34.661Z,1.30
2018-06-28T11:47:05.093Z,1.20
2018-06-28T11:49:34.540Z,1.43
2018-06-28T11:52:04.014Z,1.43
2018-06-28T11:54:33.486Z,1.47
2018-06-28T11:57:03.082Z,1.30
2018-06-28T11:59:32.605Z,1.23
2018-06-28T12:02:02.099Z,1.23
2018-06-28T12:04:31.582Z,1.53
2018-06-28T12:07:01.486Z,1.40
2018-06-28T12:09:30.854Z,1.57
2018-06-28T12:12:00.314Z,1.50
2018-06-28T12:14:29.882Z,1.17
2018-06-28T12:16:59.365Z,1.13
2018-06-28T12:19:29.013Z,1.20
2018-06-28T12:21:58.594Z,1.50
2018-06-28T12:24:28.602Z,1.40
2018-06-28T12:26:58.715Z,1.50
2018-06-28T12:29:28.444Z,1.10
2018-06-28T12:31:57.943Z,1.20
2018-06-28T12:34:27.572Z,1.00
2018-06-28T12:36:57.184Z,1.20
2018-06-28T12:39:27.248Z,1.33
2018-06-28T12:41:57.259Z,1.33
2018-06-28T12:44:26.696Z,1.70
2018-06-28T12:49:05.261Z,1.43
2018-06-28T12:51:51.707Z,1.23
2018-06-28T12:54:21.138Z,1.40
2018-06-28T12:56:52.072Z,1.57
2018-06-28T12:59:22.724Z,1.60
2018-06-28T13:10:47.161Z,1.47
2018-06-28T13:13:16.684Z,1.60
2018-06-28T13:15:46.190Z,1.10
2018-06-28T13:18:15.714Z,1.43
2018-06-28T13:20:45.317Z,1.43
2018-06-28T13:23:14.868Z,1.10
2018-06-28T13:25:44.281Z,1.30
2018-06-28T13:28:13.702Z,1.77
2018-06-28T13:30:43.216Z,1.47
2018-06-28T13:33:12.648Z,1.80
2018-06-28T13:35:42.198Z,1.70
2018-06-28T13:38:12.185Z,1.27
2018-06-28T13:40:41.941Z,1.30
2018-06-28T13:43:11.628Z,1.27
2018-06-28T13:45:41.199Z,1.40
2018-06-28T13:48:10.666Z,1.03
2018-06-28T13:50:40.294Z,1.10
2018-06-28T13:53:09.834Z,1.30
2018-06-28T13:55:39.408Z,1.13
2018-06-28T13:58:09.564Z,1.17
2018-06-28T14:00:38.849Z,1.40
2018-06-28T14:03:08.308Z,1.57
2018-06-28T14:05:37.869Z,1.30
2018-06-28T14:08:07.544Z,1.40
2018-06-28T14:10:37.311Z,1.10
2018-06-28T14:13:06.634Z,1.40
2018-06-28T14:15:36.084Z,1.30
2018-06-28T14:18:05.678Z,1.10
2018-06-28T14:20:35.264Z,1.40
2018-06-28T14:23:04.794Z,1.30
2018-06-28T14:25:34.225Z,1.53
2018-06-28T14:28:04.011Z,1.50
2018-06-28T14:30:33.414Z,1.43
2018-06-28T14:33:03.054Z,1.13
2018-06-28T14:35:32.752Z,1.63
2018-06-28T14:38:02.262Z,1.27
2018-06-28T14:40:31.829Z,1.20
2018-06-28T14:43:01.327Z,1.00
2018-06-28T14:45:30.756Z,1.43
2018-06-28T14:48:00.205Z,1.33
2018-06-28T14:50:29.798Z,1.40
2018-06-28T14:52:59.303Z,1.33
2018-06-28T14:55:28.801Z,1.40
2018-06-28T14:57:58.248Z,1.40
2018-06-28T15:00:27.758Z,0.90
2018-06-28T15:02:57.240Z,1.30
2018-06-28T15:05:26.807Z,1.00
2018-06-28T15:07:56.345Z,0.80
2018-06-28T15:10:26.066Z,4.57
2018-06-28T15:12:56.110Z,6.03
2018-06-28T15:15:25.913Z,1.87
2018-06-28T15:17:55.281Z,1.70
2018-06-28T15:20:24.761Z,1.20
2018-06-28T15:22:54.202Z,1.63
2018-06-28T15:25:23.862Z,1.30
2018-06-28T15:27:53.606Z,1.50
2018-06-28T15:30:23.098Z,1.30
2018-06-28T15:32:52.823Z,1.20
2018-06-28T15:35:22.309Z,1.23
2018-06-28T15:37:52.243Z,1.20
2018-06-28T15:40:21.688Z,1.20
2018-06-28T15:42:50.877Z,1.30
2018-06-28T15:45:21.025Z,1.00
2018-06-28T15:47:50.571Z,1.30
2018-06-28T15:50:20.056Z,1.00
2018-06-28T15:52:49.623Z,1.20
2018-06-28T15:55:19.205Z,1.30
2018-06-28T15:57:48.613Z,1.33
2018-06-28T16:00:18.339Z,1.60
2018-06-28T16:02:47.944Z,1.30
2018-06-28T16:05:17.526Z,1.20
2018-06-28T16:07:47.534Z,1.47
2018-06-28T16:10:17.879Z,1.57
2018-06-28T16:12:47.406Z,1.33
2018-06-28T16:15:16.853Z,1.10
2018-06-28T16:17:46.505Z,1.30
2018-06-28T16:20:15.930Z,1.07
2018-06-28T16:22:46.060Z,1.37
2018-06-28T16:25:15.617Z,1.63
2018-06-28T16:27:45.250Z,1.50
2018-06-28T16:30:19.167Z,1.60
2018-06-28T16:32:48.879Z,1.40
2018-06-28T16:35:18.651Z,1.10
2018-06-28T16:37:48.161Z,1.20
2018-06-28T16:40:17.654Z,1.13
2018-06-28T16:42:47.169Z,1.00
2018-06-28T16:45:16.706Z,1.33
2018-06-28T16:47:46.364Z,1.10
2018-06-28T16:50:15.901Z,1.17
2018-06-28T16:52:45.451Z,0.70
2018-06-28T16:55:15.034Z,0.93
2018-06-28T16:57:45.753Z,1.27
2018-06-28T17:00:15.261Z,1.00
2018-06-28T17:02:44.869Z,0.90
2018-06-28T17:05:15.053Z,1.00
2018-06-28T17:07:44.729Z,0.80
2018-06-28T17:10:15.139Z,0.90
2018-06-28T17:12:44.658Z,0.90
2018-06-28T17:15:14.225Z,0.90
2018-06-28T17:17:44.064Z,1.20
2018-06-28T17:20:15.544Z,1.17
2018-06-28T17:22:44.879Z,0.70
2018-06-28T17:25:15.359Z,1.00
2018-06-28T17:27:44.869Z,0.90
2018-06-28T17:30:14.372Z,1.07
2018-06-28T17:32:44.387Z,1.30
2018-06-28T17:35:14.058Z,1.20
2018-06-28T17:37:44.862Z,1.00
2018-06-28T17:40:14.542Z,1.07
2018-06-28T17:42:44.090Z,1.20
2018-06-28T17:45:13.314Z,1.20
2018-06-28T17:47:43.029Z,1.00
2018-06-28T17:50:12.982Z,0.90
2018-06-28T17:52:42.466Z,0.80
2018-06-28T17:55:11.983Z,1.17
2018-06-28T17:57:41.972Z,0.87
2018-06-28T18:00:11.511Z,1.17
2018-06-28T18:02:41.029Z,1.10
2018-06-28T18:05:11.746Z,1.70
2018-06-28T18:07:42.671Z,2.00
2018-06-28T18:10:13.046Z,1.83
2018-06-28T18:12:42.811Z,1.90
2018-06-28T18:15:12.898Z,1.20
2018-06-28T18:17:45.030Z,1.70
2018-06-28T18:20:14.581Z,1.13
2018-06-28T18:22:44.363Z,1.40
2018-06-28T18:25:14.900Z,1.10
2018-06-28T18:27:45.372Z,0.90
2018-06-28T18:30:15.070Z,1.10
2018-06-28T18:32:44.811Z,0.87
2018-06-28T18:35:14.464Z,1.00
2018-06-28T18:37:44.308Z,1.00
2018-06-28T18:40:14.618Z,1.50
2018-06-28T18:42:44.039Z,1.50
2018-06-28T18:45:13.925Z,1.23
2018-06-28T18:47:43.387Z,1.20
2018-06-28T18:50:13.175Z,1.57
2018-06-28T18:52:42.658Z,1.40
2018-06-28T18:55:12.529Z,1.67
2018-06-28T18:57:42.024Z,1.77
2018-06-28T19:00:11.543Z,1.30
2018-06-28T19:02:41.262Z,1.23
2018-06-28T19:05:10.788Z,1.13
2018-06-28T19:07:40.420Z,1.00
2018-06-28T19:10:15.539Z,1.20
2018-06-28T19:12:45.814Z,1.10
2018-06-28T19:15:20.760Z,1.10
2018-06-28T19:17:50.293Z,1.17
2018-06-28T19:20:19.786Z,1.07
2018-06-28T19:22:54.671Z,1.30
2018-06-28T19:25:26.163Z,1.43
2018-06-28T19:27:56.404Z,1.10
2018-06-28T19:30:31.027Z,1.00
2018-06-28T19:33:00.654Z,0.90
2018-06-28T19:35:31.095Z,1.13
2018-06-28T19:38:01.853Z,1.43
2018-06-28T19:40:38.681Z,1.10
2018-06-28T19:43:10.369Z,1.20
2018-06-28T19:45:39.845Z,1.13
2018-06-28T19:48:09.298Z,1.50
2018-06-28T19:50:44.024Z,1.23
2018-06-28T19:53:15.118Z,1.90
2018-06-28T19:55:44.685Z,1.80
2018-06-28T19:58:14.208Z,1.37
2018-06-28T20:00:49.047Z,1.40
2018-06-28T20:03:23.830Z,1.20
2018-06-28T20:05:55.052Z,1.03
2018-06-28T20:08:24.549Z,2.00
2018-06-28T20:10:55.437Z,4.93
2018-06-28T20:13:30.518Z,3.83
2018-06-28T20:16:05.186Z,3.23
2018-06-28T20:18:39.644Z,2.00
2018-06-28T20:21:10.269Z,2.43
2018-06-28T20:23:39.787Z,2.37
2018-06-28T20:26:14.582Z,2.50
2018-06-28T20:28:49.831Z,1.60
2018-06-28T20:31:26.066Z,2.10
2018-06-28T20:34:00.837Z,1.70
2018-06-28T20:36:30.355Z,1.97
2018-06-28T20:39:00.022Z,1.90
2018-06-28T20:41:29.583Z,1.77
2018-06-28T20:43:59.168Z,1.73
2018-06-28T20:46:28.620Z,2.40
2018-06-28T20:48:58.434Z,1.90
2018-06-28T20:51:27.946Z,1.83
2018-06-28T20:53:57.647Z,1.80
2018-06-28T20:56:27.397Z,1.93
2018-06-28T20:58:57.354Z,1.87
2018-06-28T21:01:26.809Z,2.00
2018-06-28T21:03:56.440Z,1.90
2018-06-28T21:06:26.025Z,1.70
2018-06-28T21:08:56.329Z,2.60
2018-06-28T21:11:26.286Z,1.80
2018-06-28T21:13:55.587Z,2.03
2018-06-28T21:16:24.969Z,1.80
2018-06-28T21:18:54.391Z,2.50
2018-06-28T21:21:24.617Z,2.10
2018-06-28T21:23:54.349Z,2.13
2018-06-28T21:26:24.507Z,1.73
2018-06-28T21:28:54.569Z,2.07
2018-06-28T21:31:24.701Z,1.73
2018-06-28T21:33:54.458Z,2.03
2018-06-28T21:36:23.959Z,1.63
2018-06-28T21:38:53.524Z,1.80
2018-06-28T21:41:22.765Z,2.00
2018-06-28T21:43:52.492Z,1.57
2018-06-28T21:46:22.986Z,1.50
2018-06-28T21:48:53.440Z,1.70
2018-06-28T21:51:23.265Z,1.90
2018-06-28T21:53:53.658Z,1.67
2018-06-28T21:56:23.197Z,1.53
2018-06-28T21:58:52.821Z,1.77
2018-06-28T22:01:22.447Z,1.70
2018-06-28T22:03:51.773Z,1.70
2018-06-28T22:06:21.323Z,1.80
2018-06-28T22:08:50.890Z,1.20
2018-06-28T22:11:20.433Z,1.87
2018-06-28T22:13:51.082Z,2.23
2018-06-28T22:16:20.753Z,1.27
2018-06-28T22:18:50.526Z,2.20
2018-06-28T22:21:20.113Z,1.90
2018-06-28T22:23:49.623Z,2.00
2018-06-28T22:26:19.186Z,1.60
2018-06-28T22:28:49.286Z,2.07
2018-06-28T22:31:19.234Z,1.50
2018-06-28T22:33:48.794Z,2.13
2018-06-28T22:36:18.241Z,1.63
2018-06-28T22:38:48.553Z,2.40
2018-06-28T22:41:18.100Z,2.13
2018-06-28T22:43:47.986Z,2.23
2018-06-28T22:46:17.583Z,2.10
2018-06-28T22:48:47.476Z,1.87
2018-06-28T22:51:16.789Z,1.43
2018-06-28T22:53:46.313Z,2.20
2018-06-28T22:56:16.437Z,1.90
2018-06-28T22:58:46.044Z,2.23
2018-06-28T23:01:16.441Z,2.37
2018-06-28T23:03:45.783Z,2.20
2018-06-28T23:06:15.340Z,2.33
2018-06-28T23:08:45.166Z,1.87
2018-06-28T23:11:14.464Z,1.87
2018-06-28T23:13:44.783Z,1.70
2018-06-28T23:16:14.559Z,1.90
2018-06-28T23:18:44.163Z,1.80
2018-06-28T23:21:13.676Z,2.30
2018-06-28T23:23:43.415Z,1.90
2018-06-28T23:26:13.173Z,1.80
2018-06-28T23:28:42.732Z,1.70
2018-06-28T23:31:12.324Z,2.23
2018-06-28T23:33:43.895Z,2.40
2018-06-28T23:36:14.169Z,2.63
2018-06-28T23:38:43.809Z,2.10
2018-06-28T23:41:13.391Z,1.93
2018-06-28T23:43:42.908Z,2.10
2018-06-28T23:46:13.224Z,1.57
2018-06-28T23:48:42.746Z,1.80
2018-06-28T23:51:12.249Z,1.77
2018-06-28T23:53:41.976Z,1.90
2018-06-28T23:56:11.623Z,1.50
2018-06-28T23:58:41.425Z,1.47
